sensor_id;sensor_type;location;lat;lon;timestamp;temperature;humidity
24420;DHT22;12599;52.426;13.330;2022-09-11T00:00:36;15.70;99.90
24420;DHT22;12599;52.426;13.330;2022-09-11T00:03:02;15.70;99.90
24420;DHT22;12599;52.426;13.330;2022-09-11T00:05:27;15.50;99.90
24420;DHT22;12599;52.426;13.330;2022-09-11T00:07:54;15.60;99.90
24420;DHT22;12599;52.426;13.330;2022-09-11T00:10:21;15.70;99.90
24420;DHT22;12599;52.426;13.330;2022-09-11T00:12:48;15.70;99.90
24420;DHT22;12599;52.426;13.330;2022-09-11T00:15:14;15.70;99.90
24420;DHT22;12599;52.426;13.330;2022-09-11T00:17:39;15.70;99.90
24420;DHT22;12599;52.426;13.330;2022-09-11T00:20:05;15.70;99.90
24420;DHT22;12599;52.426;13.330;2022-09-11T00:22:31;15.70;99.90
24420;DHT22;12599;52.426;13.330;2022-09-11T00:24:56;15.70;99.90
24420;DHT22;12599;52.426;13.330;2022-09-11T00:27:24;15.70;99.90
24420;DHT22;12599;52.426;13.330;2022-09-11T00:29:49;15.70;99.90
24420;DHT22;12599;52.426;13.330;2022-09-11T00:32:15;15.70;99.90
24420;DHT22;12599;52.426;13.330;2022-09-11T00:34:41;15.80;99.90
24420;DHT22;12599;52.426;13.330;2022-09-11T00:37:06;15.70;99.90
24420;DHT22;12599;52.426;13.330;2022-09-11T00:39:32;15.70;99.90
24420;DHT22;12599;52.426;13.330;2022-09-11T00:41:57;15.60;99.90
24420;DHT22;12599;52.426;13.330;2022-09-11T00:46:52;15.80;99.90
24420;DHT22;12599;52.426;13.330;2022-09-11T00:49:41;15.70;99.90
24420;DHT22;12599;52.426;13.330;2022-09-11T00:52:15;15.60;99.90
24420;DHT22;12599;52.426;13.330;2022-09-11T00:55:01;15.60;99.90
24420;DHT22;12599;52.426;13.330;2022-09-11T00:57:32;15.60;99.90
24420;DHT22;12599;52.426;13.330;2022-09-11T01:00:01;15.40;99.90
24420;DHT22;12599;52.426;13.330;2022-09-11T01:02:29;15.30;99.90
24420;DHT22;12599;52.426;13.330;2022-09-11T01:04:56;15.40;99.90
24420;DHT22;12599;52.426;13.330;2022-09-11T01:07:23;15.40;99.90
24420;DHT22;12599;52.426;13.330;2022-09-11T01:09:50;15.40;99.90
24420;DHT22;12599;52.426;13.330;2022-09-11T01:12:22;15.30;99.90
24420;DHT22;12599;52.426;13.330;2022-09-11T01:14:59;15.40;99.90
24420;DHT22;12599;52.426;13.330;2022-09-11T01:22:50;15.30;99.90
24420;DHT22;12599;52.426;13.330;2022-09-11T01:28:19;15.30;99.90
24420;DHT22;12599;52.426;13.330;2022-09-11T01:30:49;15.30;99.90
24420;DHT22;12599;52.426;13.330;2022-09-11T01:41:01;15.00;99.90
24420;DHT22;12599;52.426;13.330;2022-09-11T01:43:31;15.10;99.90
24420;DHT22;12599;52.426;13.330;2022-09-11T01:46:00;15.10;99.90
24420;DHT22;12599;52.426;13.330;2022-09-11T01:48:36;15.10;99.90
24420;DHT22;12599;52.426;13.330;2022-09-11T01:51:05;15.00;99.90
24420;DHT22;12599;52.426;13.330;2022-09-11T01:53:36;15.10;99.90
24420;DHT22;12599;52.426;13.330;2022-09-11T01:56:08;15.00;99.90
24420;DHT22;12599;52.426;13.330;2022-09-11T01:58:35;15.00;99.90
24420;DHT22;12599;52.426;13.330;2022-09-11T02:01:06;14.90;99.90
24420;DHT22;12599;52.426;13.330;2022-09-11T02:03:48;15.00;99.90
24420;DHT22;12599;52.426;13.330;2022-09-11T02:06:22;15.00;99.90
24420;DHT22;12599;52.426;13.330;2022-09-11T02:08:55;14.90;99.90
24420;DHT22;12599;52.426;13.330;2022-09-11T02:11:23;14.90;99.90
24420;DHT22;12599;52.426;13.330;2022-09-11T02:14:07;14.90;99.90
24420;DHT22;12599;52.426;13.330;2022-09-11T02:19:13;14.90;99.90
24420;DHT22;12599;52.426;13.330;2022-09-11T02:21:40;15.00;99.90
24420;DHT22;12599;52.426;13.330;2022-09-11T02:24:06;15.00;99.90
24420;DHT22;12599;52.426;13.330;2022-09-11T02:26:35;14.90;99.90
24420;DHT22;12599;52.426;13.330;2022-09-11T02:29:03;14.90;99.90
24420;DHT22;12599;52.426;13.330;2022-09-11T02:31:29;14.80;99.90
24420;DHT22;12599;52.426;13.330;2022-09-11T02:33:55;14.80;99.90
24420;DHT22;12599;52.426;13.330;2022-09-11T02:42:29;14.80;99.90
24420;DHT22;12599;52.426;13.330;2022-09-11T02:48:18;14.80;99.90
24420;DHT22;12599;52.426;13.330;2022-09-11T02:51:00;14.80;99.90
24420;DHT22;12599;52.426;13.330;2022-09-11T02:53:38;14.70;99.90
24420;DHT22;12599;52.426;13.330;2022-09-11T02:58:45;14.80;99.90
24420;DHT22;12599;52.426;13.330;2022-09-11T03:01:13;14.70;99.90
24420;DHT22;12599;52.426;13.330;2022-09-11T03:03:44;14.70;99.90
24420;DHT22;12599;52.426;13.330;2022-09-11T03:06:17;14.60;99.90
24420;DHT22;12599;52.426;13.330;2022-09-11T03:08:42;14.60;99.90
24420;DHT22;12599;52.426;13.330;2022-09-11T03:11:09;14.60;99.90
24420;DHT22;12599;52.426;13.330;2022-09-11T03:13:36;15.30;99.90
24420;DHT22;12599;52.426;13.330;2022-09-11T03:16:03;14.60;99.90
24420;DHT22;12599;52.426;13.330;2022-09-11T03:18:30;14.60;99.90
24420;DHT22;12599;52.426;13.330;2022-09-11T03:20:55;14.60;99.90
24420;DHT22;12599;52.426;13.330;2022-09-11T03:23:21;14.60;99.90
24420;DHT22;12599;52.426;13.330;2022-09-11T03:25:47;14.70;99.90
24420;DHT22;12599;52.426;13.330;2022-09-11T03:28:12;14.60;99.90
24420;DHT22;12599;52.426;13.330;2022-09-11T03:30:39;14.60;99.90
24420;DHT22;12599;52.426;13.330;2022-09-11T03:33:06;14.60;99.90
24420;DHT22;12599;52.426;13.330;2022-09-11T03:35:32;14.60;99.90
24420;DHT22;12599;52.426;13.330;2022-09-11T03:37:57;14.70;99.90
24420;DHT22;12599;52.426;13.330;2022-09-11T03:40:23;14.70;99.90
24420;DHT22;12599;52.426;13.330;2022-09-11T03:42:48;14.70;99.90
24420;DHT22;12599;52.426;13.330;2022-09-11T03:45:14;14.70;99.90
24420;DHT22;12599;52.426;13.330;2022-09-11T03:47:40;16.50;99.90
24420;DHT22;12599;52.426;13.330;2022-09-11T03:50:07;14.60;99.90
24420;DHT22;12599;52.426;13.330;2022-09-11T03:52:33;14.60;99.90
24420;DHT22;12599;52.426;13.330;2022-09-11T03:54:59;14.70;99.90
24420;DHT22;12599;52.426;13.330;2022-09-11T03:57:25;14.60;99.90
24420;DHT22;12599;52.426;13.330;2022-09-11T03:59:50;14.60;99.90
24420;DHT22;12599;52.426;13.330;2022-09-11T04:02:16;14.60;99.90
24420;DHT22;12599;52.426;13.330;2022-09-11T04:04:42;14.60;99.90
24420;DHT22;12599;52.426;13.330;2022-09-11T04:07:08;14.50;99.90
24420;DHT22;12599;52.426;13.330;2022-09-11T04:09:33;14.40;99.90
24420;DHT22;12599;52.426;13.330;2022-09-11T04:11:59;14.30;99.90
24420;DHT22;12599;52.426;13.330;2022-09-11T04:14:24;14.30;99.90
24420;DHT22;12599;52.426;13.330;2022-09-11T04:16:51;14.30;99.90
24420;DHT22;12599;52.426;13.330;2022-09-11T04:19:17;14.40;99.90
24420;DHT22;12599;52.426;13.330;2022-09-11T04:21:45;14.40;99.90
24420;DHT22;12599;52.426;13.330;2022-09-11T04:24:11;14.40;99.90
24420;DHT22;12599;52.426;13.330;2022-09-11T04:26:37;14.30;99.90
24420;DHT22;12599;52.426;13.330;2022-09-11T04:29:02;14.30;99.90
24420;DHT22;12599;52.426;13.330;2022-09-11T04:31:28;14.30;99.90
24420;DHT22;12599;52.426;13.330;2022-09-11T04:33:54;14.30;99.90
24420;DHT22;12599;52.426;13.330;2022-09-11T04:36:20;14.30;99.90
24420;DHT22;12599;52.426;13.330;2022-09-11T04:38:47;14.30;99.90
24420;DHT22;12599;52.426;13.330;2022-09-11T04:41:14;14.30;99.90
24420;DHT22;12599;52.426;13.330;2022-09-11T04:43:40;14.30;99.90
24420;DHT22;12599;52.426;13.330;2022-09-11T04:46:16;14.30;99.90
24420;DHT22;12599;52.426;13.330;2022-09-11T04:48:50;14.40;99.90
24420;DHT22;12599;52.426;13.330;2022-09-11T04:51:27;14.40;99.90
24420;DHT22;12599;52.426;13.330;2022-09-11T04:53:54;14.30;99.90
24420;DHT22;12599;52.426;13.330;2022-09-11T04:56:23;14.30;99.90
24420;DHT22;12599;52.426;13.330;2022-09-11T04:59:00;14.40;99.90
24420;DHT22;12599;52.426;13.330;2022-09-11T05:01:28;14.40;99.90
24420;DHT22;12599;52.426;13.330;2022-09-11T05:03:54;14.60;99.90
24420;DHT22;12599;52.426;13.330;2022-09-11T05:06:21;14.40;99.90
24420;DHT22;12599;52.426;13.330;2022-09-11T05:08:47;14.50;99.90
24420;DHT22;12599;52.426;13.330;2022-09-11T05:11:15;14.40;99.90
24420;DHT22;12599;52.426;13.330;2022-09-11T05:13:42;14.40;99.90
24420;DHT22;12599;52.426;13.330;2022-09-11T05:16:12;14.50;99.90
24420;DHT22;12599;52.426;13.330;2022-09-11T05:18:39;14.50;99.90
24420;DHT22;12599;52.426;13.330;2022-09-11T05:21:11;14.50;99.90
24420;DHT22;12599;52.426;13.330;2022-09-11T05:23:37;14.50;99.90
24420;DHT22;12599;52.426;13.330;2022-09-11T05:26:04;14.60;99.90
24420;DHT22;12599;52.426;13.330;2022-09-11T05:28:31;14.60;99.90
24420;DHT22;12599;52.426;13.330;2022-09-11T05:30:57;14.70;99.90
24420;DHT22;12599;52.426;13.330;2022-09-11T05:33:24;14.70;99.90
24420;DHT22;12599;52.426;13.330;2022-09-11T05:35:54;14.80;99.90
24420;DHT22;12599;52.426;13.330;2022-09-11T05:38:21;14.80;99.90
24420;DHT22;12599;52.426;13.330;2022-09-11T05:40:48;14.90;99.90
24420;DHT22;12599;52.426;13.330;2022-09-11T05:43:16;14.90;99.90
24420;DHT22;12599;52.426;13.330;2022-09-11T05:45:42;14.90;99.90
24420;DHT22;12599;52.426;13.330;2022-09-11T05:48:09;14.90;99.90
24420;DHT22;12599;52.426;13.330;2022-09-11T05:50:35;15.00;99.90
24420;DHT22;12599;52.426;13.330;2022-09-11T05:53:01;14.90;99.90
24420;DHT22;12599;52.426;13.330;2022-09-11T05:55:27;15.00;99.90
24420;DHT22;12599;52.426;13.330;2022-09-11T05:57:53;14.80;99.90
24420;DHT22;12599;52.426;13.330;2022-09-11T06:00:19;15.00;99.90
24420;DHT22;12599;52.426;13.330;2022-09-11T06:02:45;15.00;99.90
24420;DHT22;12599;52.426;13.330;2022-09-11T06:05:12;15.10;99.90
24420;DHT22;12599;52.426;13.330;2022-09-11T06:07:38;15.20;99.90
24420;DHT22;12599;52.426;13.330;2022-09-11T06:10:04;15.30;99.90
24420;DHT22;12599;52.426;13.330;2022-09-11T06:12:29;15.30;99.90
24420;DHT22;12599;52.426;13.330;2022-09-11T06:14:55;15.40;99.90
24420;DHT22;12599;52.426;13.330;2022-09-11T06:17:20;15.30;99.90
24420;DHT22;12599;52.426;13.330;2022-09-11T06:19:46;15.30;99.90
24420;DHT22;12599;52.426;13.330;2022-09-11T06:22:12;15.60;99.90
24420;DHT22;12599;52.426;13.330;2022-09-11T06:24:37;15.30;99.90
24420;DHT22;12599;52.426;13.330;2022-09-11T06:27:03;15.10;99.90
24420;DHT22;12599;52.426;13.330;2022-09-11T06:29:28;15.20;99.90
24420;DHT22;12599;52.426;13.330;2022-09-11T06:31:57;15.10;99.90
24420;DHT22;12599;52.426;13.330;2022-09-11T06:34:23;15.20;99.90
24420;DHT22;12599;52.426;13.330;2022-09-11T06:36:48;15.30;99.90
24420;DHT22;12599;52.426;13.330;2022-09-11T06:39:15;15.40;99.90
24420;DHT22;12599;52.426;13.330;2022-09-11T06:41:41;15.50;99.90
24420;DHT22;12599;52.426;13.330;2022-09-11T06:44:07;15.50;99.90
24420;DHT22;12599;52.426;13.330;2022-09-11T06:46:34;15.60;99.90
24420;DHT22;12599;52.426;13.330;2022-09-11T06:48:59;15.50;99.90
24420;DHT22;12599;52.426;13.330;2022-09-11T06:51:26;15.60;99.90
24420;DHT22;12599;52.426;13.330;2022-09-11T06:53:57;15.80;99.90
24420;DHT22;12599;52.426;13.330;2022-09-11T06:56:25;15.90;99.90
24420;DHT22;12599;52.426;13.330;2022-09-11T06:58:51;16.00;99.90
24420;DHT22;12599;52.426;13.330;2022-09-11T07:01:18;16.00;99.90
24420;DHT22;12599;52.426;13.330;2022-09-11T07:03:45;16.10;99.90
24420;DHT22;12599;52.426;13.330;2022-09-11T07:06:13;16.10;99.90
24420;DHT22;12599;52.426;13.330;2022-09-11T07:08:39;16.00;99.90
24420;DHT22;12599;52.426;13.330;2022-09-11T07:11:06;16.00;99.90
24420;DHT22;12599;52.426;13.330;2022-09-11T07:13:32;16.00;99.90
24420;DHT22;12599;52.426;13.330;2022-09-11T07:16:04;15.90;99.90
24420;DHT22;12599;52.426;13.330;2022-09-11T07:18:44;15.90;99.90
24420;DHT22;12599;52.426;13.330;2022-09-11T07:21:10;16.00;99.90
24420;DHT22;12599;52.426;13.330;2022-09-11T07:23:37;16.00;99.90
24420;DHT22;12599;52.426;13.330;2022-09-11T07:26:05;16.10;99.90
24420;DHT22;12599;52.426;13.330;2022-09-11T07:28:32;16.10;99.90
24420;DHT22;12599;52.426;13.330;2022-09-11T07:31:05;16.20;99.90
24420;DHT22;12599;52.426;13.330;2022-09-11T07:33:31;16.20;99.90
24420;DHT22;12599;52.426;13.330;2022-09-11T07:35:57;16.20;99.90
24420;DHT22;12599;52.426;13.330;2022-09-11T07:38:22;16.30;99.90
24420;DHT22;12599;52.426;13.330;2022-09-11T07:40:48;16.30;99.90
24420;DHT22;12599;52.426;13.330;2022-09-11T07:43:19;16.30;99.90
24420;DHT22;12599;52.426;13.330;2022-09-11T07:45:45;16.30;99.90
24420;DHT22;12599;52.426;13.330;2022-09-11T07:48:11;16.40;99.90
24420;DHT22;12599;52.426;13.330;2022-09-11T07:50:37;16.60;99.90
24420;DHT22;12599;52.426;13.330;2022-09-11T07:53:03;16.60;99.90
24420;DHT22;12599;52.426;13.330;2022-09-11T07:55:28;16.50;99.90
24420;DHT22;12599;52.426;13.330;2022-09-11T07:57:54;16.60;99.90
24420;DHT22;12599;52.426;13.330;2022-09-11T08:00:20;16.60;99.90
24420;DHT22;12599;52.426;13.330;2022-09-11T08:02:46;16.70;99.90
24420;DHT22;12599;52.426;13.330;2022-09-11T08:05:12;16.70;99.90
24420;DHT22;12599;52.426;13.330;2022-09-11T08:07:38;16.90;99.90
24420;DHT22;12599;52.426;13.330;2022-09-11T08:10:04;17.20;99.90
24420;DHT22;12599;52.426;13.330;2022-09-11T08:12:29;17.20;99.90
24420;DHT22;12599;52.426;13.330;2022-09-11T08:14:56;17.50;99.90
24420;DHT22;12599;52.426;13.330;2022-09-11T08:17:22;17.70;99.90
24420;DHT22;12599;52.426;13.330;2022-09-11T08:19:47;18.00;99.90
24420;DHT22;12599;52.426;13.330;2022-09-11T08:22:13;18.10;99.90
24420;DHT22;12599;52.426;13.330;2022-09-11T08:24:38;18.20;99.90
24420;DHT22;12599;52.426;13.330;2022-09-11T08:27:05;18.10;99.90
24420;DHT22;12599;52.426;13.330;2022-09-11T08:29:31;18.00;99.90
24420;DHT22;12599;52.426;13.330;2022-09-11T08:31:56;18.00;99.90
24420;DHT22;12599;52.426;13.330;2022-09-11T08:34:22;17.80;99.90
24420;DHT22;12599;52.426;13.330;2022-09-11T08:36:48;17.70;99.90
24420;DHT22;12599;52.426;13.330;2022-09-11T08:39:15;17.70;99.90
24420;DHT22;12599;52.426;13.330;2022-09-11T08:41:57;17.70;99.90
24420;DHT22;12599;52.426;13.330;2022-09-11T08:44:51;17.90;99.90
24420;DHT22;12599;52.426;13.330;2022-09-11T08:47:24;18.10;99.90
24420;DHT22;12599;52.426;13.330;2022-09-11T08:50:17;17.90;99.90
24420;DHT22;12599;52.426;13.330;2022-09-11T08:52:45;18.00;99.90
24420;DHT22;12599;52.426;13.330;2022-09-11T08:55:14;18.00;99.90
24420;DHT22;12599;52.426;13.330;2022-09-11T09:00:21;18.30;99.90
24420;DHT22;12599;52.426;13.330;2022-09-11T09:05:42;18.20;99.90
24420;DHT22;12599;52.426;13.330;2022-09-11T09:11:13;17.80;99.90
24420;DHT22;12599;52.426;13.330;2022-09-11T09:14:21;17.80;99.90
24420;DHT22;12599;52.426;13.330;2022-09-11T09:17:00;17.80;99.90
24420;DHT22;12599;52.426;13.330;2022-09-11T09:19:37;17.90;99.90
24420;DHT22;12599;52.426;13.330;2022-09-11T09:24:43;17.80;99.90
24420;DHT22;12599;52.426;13.330;2022-09-11T09:27:18;18.00;99.90
24420;DHT22;12599;52.426;13.330;2022-09-11T09:29:45;18.30;99.90
24420;DHT22;12599;52.426;13.330;2022-09-11T09:32:19;18.50;99.90
24420;DHT22;12599;52.426;13.330;2022-09-11T09:34:49;18.80;99.90
24420;DHT22;12599;52.426;13.330;2022-09-11T09:37:20;18.70;99.90
24420;DHT22;12599;52.426;13.330;2022-09-11T09:39:47;18.70;99.90
24420;DHT22;12599;52.426;13.330;2022-09-11T09:47:23;18.60;99.90
24420;DHT22;12599;52.426;13.330;2022-09-11T09:49:49;18.70;99.90
24420;DHT22;12599;52.426;13.330;2022-09-11T09:57:19;18.70;99.90
24420;DHT22;12599;52.426;13.330;2022-09-11T09:59:56;18.70;99.90
24420;DHT22;12599;52.426;13.330;2022-09-11T10:07:51;19.10;99.90
24420;DHT22;12599;52.426;13.330;2022-09-11T10:12:50;19.00;99.90
24420;DHT22;12599;52.426;13.330;2022-09-11T10:15:20;19.00;99.90
24420;DHT22;12599;52.426;13.330;2022-09-11T10:17:50;19.00;99.90
24420;DHT22;12599;52.426;13.330;2022-09-11T10:22:53;19.00;99.90
24420;DHT22;12599;52.426;13.330;2022-09-11T10:25:26;18.90;99.90
24420;DHT22;12599;52.426;13.330;2022-09-11T10:28:11;18.90;99.90
24420;DHT22;12599;52.426;13.330;2022-09-11T10:30:41;19.00;99.90
24420;DHT22;12599;52.426;13.330;2022-09-11T10:33:30;18.90;99.90
24420;DHT22;12599;52.426;13.330;2022-09-11T10:35:59;19.00;99.90
24420;DHT22;12599;52.426;13.330;2022-09-11T10:41:27;19.10;99.90
24420;DHT22;12599;52.426;13.330;2022-09-11T10:43:57;19.10;99.90
24420;DHT22;12599;52.426;13.330;2022-09-11T10:46:26;19.30;99.90
24420;DHT22;12599;52.426;13.330;2022-09-11T10:48:54;19.40;99.90
24420;DHT22;12599;52.426;13.330;2022-09-11T10:51:21;19.50;99.90
24420;DHT22;12599;52.426;13.330;2022-09-11T10:59:22;19.40;99.90
24420;DHT22;12599;52.426;13.330;2022-09-11T11:01:49;19.60;99.90
24420;DHT22;12599;52.426;13.330;2022-09-11T11:04:15;19.80;99.90
24420;DHT22;12599;52.426;13.330;2022-09-11T11:10:02;20.00;99.90
24420;DHT22;12599;52.426;13.330;2022-09-11T11:13:05;20.20;99.90
24420;DHT22;12599;52.426;13.330;2022-09-11T11:18:38;19.90;99.90
24420;DHT22;12599;52.426;13.330;2022-09-11T11:34:39;18.50;99.90
24420;DHT22;12599;52.426;13.330;2022-09-11T11:42:30;18.20;99.90
24420;DHT22;12599;52.426;13.330;2022-09-11T11:47:38;18.10;99.90
24420;DHT22;12599;52.426;13.330;2022-09-11T11:55:41;18.40;99.90
24420;DHT22;12599;52.426;13.330;2022-09-11T12:02:12;18.60;99.90
24420;DHT22;12599;52.426;13.330;2022-09-11T12:06:58;18.70;99.90
24420;DHT22;12599;52.426;13.330;2022-09-11T12:09:24;18.90;99.90
24420;DHT22;12599;52.426;13.330;2022-09-11T12:11:52;19.00;99.90
24420;DHT22;12599;52.426;13.330;2022-09-11T12:14:25;19.10;99.90
24420;DHT22;12599;52.426;13.330;2022-09-11T12:16:52;19.20;99.90
24420;DHT22;12599;52.426;13.330;2022-09-11T12:19:21;19.30;99.90
24420;DHT22;12599;52.426;13.330;2022-09-11T12:24:22;19.60;99.90
24420;DHT22;12599;52.426;13.330;2022-09-11T12:32:48;20.00;99.90
24420;DHT22;12599;52.426;13.330;2022-09-11T12:35:40;19.90;99.90
24420;DHT22;12599;52.426;13.330;2022-09-11T12:40:48;19.90;99.90
24420;DHT22;12599;52.426;13.330;2022-09-11T12:45:43;19.90;99.90
24420;DHT22;12599;52.426;13.330;2022-09-11T12:48:17;19.70;99.90
24420;DHT22;12599;52.426;13.330;2022-09-11T12:50:55;19.80;99.90
24420;DHT22;12599;52.426;13.330;2022-09-11T12:53:28;19.80;99.90
24420;DHT22;12599;52.426;13.330;2022-09-11T12:58:33;19.70;99.90
24420;DHT22;12599;52.426;13.330;2022-09-11T13:01:21;19.70;99.90
24420;DHT22;12599;52.426;13.330;2022-09-11T13:06:25;19.70;99.90
24420;DHT22;12599;52.426;13.330;2022-09-11T13:09:00;19.60;99.90
24420;DHT22;12599;52.426;13.330;2022-09-11T13:11:49;19.50;99.90
24420;DHT22;12599;52.426;13.330;2022-09-11T15:09:02;19.90;99.90
24420;DHT22;12599;52.426;13.330;2022-09-11T15:11:28;19.90;99.90
24420;DHT22;12599;52.426;13.330;2022-09-11T15:13:54;19.90;99.90
24420;DHT22;12599;52.426;13.330;2022-09-11T15:16:21;19.70;99.90
24420;DHT22;12599;52.426;13.330;2022-09-11T15:18:47;19.70;99.90
24420;DHT22;12599;52.426;13.330;2022-09-11T15:21:13;19.80;99.90
24420;DHT22;12599;52.426;13.330;2022-09-11T15:23:38;19.90;99.90
24420;DHT22;12599;52.426;13.330;2022-09-11T15:26:04;20.20;99.90
24420;DHT22;12599;52.426;13.330;2022-09-11T15:28:32;20.30;99.90
24420;DHT22;12599;52.426;13.330;2022-09-11T15:30:59;20.30;99.90
24420;DHT22;12599;52.426;13.330;2022-09-11T15:33:25;20.10;99.90
24420;DHT22;12599;52.426;13.330;2022-09-11T15:35:52;19.70;99.90
24420;DHT22;12599;52.426;13.330;2022-09-11T15:38:22;19.70;99.90
24420;DHT22;12599;52.426;13.330;2022-09-11T15:40:52;19.80;99.90
24420;DHT22;12599;52.426;13.330;2022-09-11T15:43:22;19.70;99.90
24420;DHT22;12599;52.426;13.330;2022-09-11T15:45:48;19.70;99.90
24420;DHT22;12599;52.426;13.330;2022-09-11T15:48:13;19.60;99.90
24420;DHT22;12599;52.426;13.330;2022-09-11T15:50:40;19.50;99.90
24420;DHT22;12599;52.426;13.330;2022-09-11T15:53:06;19.50;99.90
24420;DHT22;12599;52.426;13.330;2022-09-11T15:55:33;19.40;99.90
24420;DHT22;12599;52.426;13.330;2022-09-11T15:57:59;19.40;99.90
24420;DHT22;12599;52.426;13.330;2022-09-11T16:00:25;19.30;99.90
24420;DHT22;12599;52.426;13.330;2022-09-11T16:02:51;19.20;99.90
24420;DHT22;12599;52.426;13.330;2022-09-11T16:05:17;19.60;99.90
24420;DHT22;12599;52.426;13.330;2022-09-11T16:07:43;19.20;99.90
24420;DHT22;12599;52.426;13.330;2022-09-11T16:10:09;19.10;99.90
24420;DHT22;12599;52.426;13.330;2022-09-11T16:12:34;20.00;99.90
24420;DHT22;12599;52.426;13.330;2022-09-11T16:15:00;18.90;99.90
24420;DHT22;12599;52.426;13.330;2022-09-11T16:17:26;18.90;99.90
24420;DHT22;12599;52.426;13.330;2022-09-11T16:19:56;18.90;99.90
24420;DHT22;12599;52.426;13.330;2022-09-11T16:22:22;18.90;99.90
24420;DHT22;12599;52.426;13.330;2022-09-11T16:24:47;18.80;99.90
24420;DHT22;12599;52.426;13.330;2022-09-11T16:27:14;18.80;99.90
24420;DHT22;12599;52.426;13.330;2022-09-11T16:29:40;19.00;99.90
24420;DHT22;12599;52.426;13.330;2022-09-11T16:32:05;18.70;99.90
24420;DHT22;12599;52.426;13.330;2022-09-11T16:34:32;18.60;99.90
24420;DHT22;12599;52.426;13.330;2022-09-11T16:36:58;18.60;99.90
24420;DHT22;12599;52.426;13.330;2022-09-11T16:39:23;18.60;99.90
24420;DHT22;12599;52.426;13.330;2022-09-11T16:41:49;18.60;99.90
24420;DHT22;12599;52.426;13.330;2022-09-11T16:44:15;18.60;99.90
24420;DHT22;12599;52.426;13.330;2022-09-11T16:46:42;18.70;99.90
24420;DHT22;12599;52.426;13.330;2022-09-11T16:49:12;18.60;99.90
24420;DHT22;12599;52.426;13.330;2022-09-11T16:51:40;18.60;99.90
24420;DHT22;12599;52.426;13.330;2022-09-11T16:54:06;18.50;99.90
24420;DHT22;12599;52.426;13.330;2022-09-11T16:56:32;18.50;99.90
24420;DHT22;12599;52.426;13.330;2022-09-11T16:58:57;18.50;99.90
24420;DHT22;12599;52.426;13.330;2022-09-11T17:01:25;18.40;99.90
24420;DHT22;12599;52.426;13.330;2022-09-11T17:03:53;18.40;99.90
24420;DHT22;12599;52.426;13.330;2022-09-11T17:06:21;18.40;99.90
24420;DHT22;12599;52.426;13.330;2022-09-11T17:08:49;18.40;99.90
24420;DHT22;12599;52.426;13.330;2022-09-11T17:11:16;18.40;99.90
24420;DHT22;12599;52.426;13.330;2022-09-11T17:13:42;18.30;99.90
24420;DHT22;12599;52.426;13.330;2022-09-11T17:16:12;18.30;99.90
24420;DHT22;12599;52.426;13.330;2022-09-11T17:18:38;18.30;99.90
24420;DHT22;12599;52.426;13.330;2022-09-11T17:21:06;18.40;99.90
24420;DHT22;12599;52.426;13.330;2022-09-11T17:23:33;18.40;99.90
24420;DHT22;12599;52.426;13.330;2022-09-11T17:26:03;18.40;99.90
24420;DHT22;12599;52.426;13.330;2022-09-11T17:28:29;18.40;99.90
24420;DHT22;12599;52.426;13.330;2022-09-11T17:30:59;18.40;99.90
24420;DHT22;12599;52.426;13.330;2022-09-11T17:33:25;18.40;99.90
24420;DHT22;12599;52.426;13.330;2022-09-11T17:35:51;18.40;99.90
24420;DHT22;12599;52.426;13.330;2022-09-11T17:38:17;18.20;99.90
24420;DHT22;12599;52.426;13.330;2022-09-11T17:40:42;18.30;99.90
24420;DHT22;12599;52.426;13.330;2022-09-11T17:43:08;18.30;99.90
24420;DHT22;12599;52.426;13.330;2022-09-11T17:45:37;18.30;99.90
24420;DHT22;12599;52.426;13.330;2022-09-11T17:48:03;18.20;99.90
24420;DHT22;12599;52.426;13.330;2022-09-11T17:50:29;18.10;99.90
24420;DHT22;12599;52.426;13.330;2022-09-11T17:52:55;18.20;99.90
24420;DHT22;12599;52.426;13.330;2022-09-11T17:55:21;18.00;99.90
24420;DHT22;12599;52.426;13.330;2022-09-11T17:57:53;18.10;99.90
24420;DHT22;12599;52.426;13.330;2022-09-11T18:00:18;17.90;99.90
24420;DHT22;12599;52.426;13.330;2022-09-11T18:02:44;18.00;99.90
24420;DHT22;12599;52.426;13.330;2022-09-11T18:05:13;18.30;99.90
24420;DHT22;12599;52.426;13.330;2022-09-11T18:07:39;17.90;99.90
24420;DHT22;12599;52.426;13.330;2022-09-11T18:10:07;17.80;99.90
24420;DHT22;12599;52.426;13.330;2022-09-11T18:12:33;17.80;99.90
24420;DHT22;12599;52.426;13.330;2022-09-11T18:15:02;17.70;99.90
24420;DHT22;12599;52.426;13.330;2022-09-11T18:17:28;17.60;99.90
24420;DHT22;12599;52.426;13.330;2022-09-11T18:19:54;17.50;99.90
24420;DHT22;12599;52.426;13.330;2022-09-11T18:22:20;17.60;99.90
24420;DHT22;12599;52.426;13.330;2022-09-11T18:24:47;17.60;99.90
24420;DHT22;12599;52.426;13.330;2022-09-11T18:27:15;17.40;99.90
24420;DHT22;12599;52.426;13.330;2022-09-11T18:29:42;17.30;99.90
24420;DHT22;12599;52.426;13.330;2022-09-11T18:32:08;17.30;99.90
24420;DHT22;12599;52.426;13.330;2022-09-11T18:34:34;16.80;99.90
24420;DHT22;12599;52.426;13.330;2022-09-11T18:36:59;17.10;99.90
24420;DHT22;12599;52.426;13.330;2022-09-11T18:39:25;17.20;99.90
24420;DHT22;12599;52.426;13.330;2022-09-11T18:41:51;17.20;99.90
24420;DHT22;12599;52.426;13.330;2022-09-11T18:44:18;17.20;99.90
24420;DHT22;12599;52.426;13.330;2022-09-11T18:46:44;17.00;99.90
24420;DHT22;12599;52.426;13.330;2022-09-11T18:49:14;17.00;99.90
24420;DHT22;12599;52.426;13.330;2022-09-11T18:51:40;16.80;99.90
24420;DHT22;12599;52.426;13.330;2022-09-11T18:54:13;16.70;99.90
24420;DHT22;12599;52.426;13.330;2022-09-11T18:56:40;16.60;99.90
24420;DHT22;12599;52.426;13.330;2022-09-11T18:59:07;16.50;99.90
24420;DHT22;12599;52.426;13.330;2022-09-11T19:01:33;16.50;99.90
24420;DHT22;12599;52.426;13.330;2022-09-11T19:04:05;16.50;99.90
24420;DHT22;12599;52.426;13.330;2022-09-11T19:06:31;16.40;99.90
24420;DHT22;12599;52.426;13.330;2022-09-11T19:08:57;16.30;99.90
24420;DHT22;12599;52.426;13.330;2022-09-11T19:11:26;16.20;99.90
24420;DHT22;12599;52.426;13.330;2022-09-11T19:13:54;16.20;99.90
24420;DHT22;12599;52.426;13.330;2022-09-11T19:16:21;16.30;99.90
24420;DHT22;12599;52.426;13.330;2022-09-11T19:18:47;16.30;99.90
24420;DHT22;12599;52.426;13.330;2022-09-11T19:21:16;16.30;99.90
24420;DHT22;12599;52.426;13.330;2022-09-11T19:23:46;16.30;99.90
24420;DHT22;12599;52.426;13.330;2022-09-11T19:26:16;16.30;99.90
24420;DHT22;12599;52.426;13.330;2022-09-11T19:28:43;16.30;99.90